Jacky L O'neal — WDG3892 — position and weather

sailwx.info

Track history (hours):
 
Tides and Currents Weather Stations Pressure Air Temp Water Temp Dewpoint Dewpoint Depression Visibility Wind Speed Wind Dir Waves Ship Positions

Jacky L O'neal

Owner: American Commercial Lines LLC, Jeffersonville, IN. More information available from US FCC via Universal Licensing System and Coast Guard Vessel Documentation Center.

Last reported at 2018-Jul-13 13:35 UTC. Time now 2018-Jul-16 14:46 UTC.
Position N 33°14' W 091°06'.

Length 55 m; draft 3.4 m.

Type: Towing. MMSI: 367530760.

Date/timePositionNaut miles runAvg speedWind from/ knotsBaromVisibWave heightAir tempDewpointWater temp
2018-Jul-13 13:35N 33°14' W 091°06'11 3.7
2018-Jul-13 10:42N 33°04' W 091°10'6 4.1
2018-Jul-13 09:10N 32°57' W 091°08'2 4.2
2018-Jul-13 08:43N 32°57' W 091°06'1 4.5
2018-Jul-13 08:27N 32°57' W 091°05'4 3.7
2018-Jul-13 07:21N 32°53' W 091°05'2 4.6
2018-Jul-13 07:00N 32°51' W 091°07'2 4.3
2018-Jul-13 06:29N 32°50' W 091°08'2 4.3
2018-Jul-13 05:54N 32°47' W 091°09'2 4.5
2018-Jul-13 05:30N 32°46' W 091°09'2 3.9
2018-Jul-13 04:57N 32°44' W 091°08'2 5.1
2018-Jul-13 04:30N 32°44' W 091°05'4 3.2
2018-Jul-13 03:21N 32°41' W 091°05'2 4.7
2018-Jul-13 03:00N 32°40' W 091°07'2 3.9
2018-Jul-13 02:30N 32°39' W 091°09'2 4.9
2018-Jul-13 02:00N 32°36' W 091°09'2 4.7
2018-Jul-13 01:30N 32°35' W 091°07'2 4.3
2018-Jul-13 01:00N 32°33' W 091°06'3 5.0
2018-Jul-13 00:30N 32°30' W 091°07'2 4.6
2018-Jul-13 00:00N 32°28' W 091°06'2 4.8
2018-Jul-12 23:30N 32°27' W 091°04'2 4.8
2018-Jul-12 23:00N 32°26' W 091°01'2 4.2
2018-Jul-12 22:30N 32°24' W 090°60'2 4.7
2018-Jul-12 22:00N 32°22' W 091°00'2 4.2
2018-Jul-12 21:29N 32°21' W 090°58'2 4.5
2018-Jul-12 21:00N 32°21' W 090°56'2 3.7
2018-Jul-12 20:29N 32°19' W 090°54'2 4.3
2018-Jul-12 20:00N 32°18' W 090°56'2 4.6
2018-Jul-12 19:30N 32°16' W 090°58'2 4.7
2018-Jul-12 19:00N 32°14' W 090°59'2 4.9
2018-Jul-12 18:30N 32°11' W 090°60'2 4.1
2018-Jul-12 18:00N 32°09' W 091°00'2 4.6
2018-Jul-12 17:30N 32°07' W 091°01'2 4.0
2018-Jul-12 17:00N 32°08' W 091°03'2 4.4
2018-Jul-12 16:30N 32°08' W 091°06'2 3.8
2018-Jul-12 15:58N 32°06' W 091°05'2 5.0
2018-Jul-12 15:30N 32°04' W 091°03'2 4.6
2018-Jul-12 15:00N 32°02' W 091°04'7 4.2
2018-Jul-12 13:26N 31°58' W 091°11'2 4.6
2018-Jul-12 13:00N 31°57' W 091°11'3 5.3
2018-Jul-12 12:30N 31°54' W 091°12'3 4.5
2018-Jul-12 11:50N 31°52' W 091°15'5 4.3
2018-Jul-12 10:42N 31°51' W 091°20'1 3.8
2018-Jul-12 10:30N 31°50' W 091°21'4 2.1
2018-Jul-12 08:33N 31°46' W 091°22'0 4.1
2018-Jul-12 08:30N 31°46' W 091°22'3 4.7
2018-Jul-12 07:58N 31°44' W 091°23'2 4.7
2018-Jul-12 07:28N 31°42' W 091°24'  
2018-Jul-08 13:13N 31°43' W 091°23'3 9.0
2018-Jul-08 12:51N 31°46' W 091°22'11 7.5
2018-Jul-08 11:22N 31°54' W 091°12'3 8.8
2018-Jul-08 10:58N 31°57' W 091°12'4 7.7
2018-Jul-08 10:30N 31°59' W 091°08'4 8.1
2018-Jul-08 10:00N 32°01' W 091°04'4 7.6
2018-Jul-08 09:30N 32°05' W 091°05'3 5.9
2018-Jul-08 09:00N 32°08' W 091°06'4 7.2
2018-Jul-08 08:30N 32°07' W 091°02'4 8.2
2018-Jul-08 08:00N 32°11' W 090°60'4 8.8
2018-Jul-08 07:30N 32°15' W 090°58'4 8.9
2018-Jul-08 07:00N 32°18' W 090°55'2 4.0
2018-Jul-08 06:30N 32°20' W 090°54'3 5.2
2018-Jul-08 06:00N 32°21' W 090°57'3 6.0
2018-Jul-08 05:30N 32°23' W 090°60'3 7.0
2018-Jul-08 05:00N 32°26' W 091°02'4 8.8
2018-Jul-08 04:30N 32°28' W 091°07'4 8.5
2018-Jul-08 04:00N 32°32' W 091°06'4 8.4
2018-Jul-08 03:30N 32°36' W 091°09'4 7.6
2018-Jul-08 03:00N 32°40' W 091°08'5 3.7
2018-Jul-08 01:44N 32°44' W 091°09'  
Track history (hours):
 
Tides and Currents Weather Stations Pressure Air Temp Water Temp Dewpoint Dewpoint Depression Visibility Wind Speed Wind Dir Waves Ship Positions

Jacky L O'neal

Owner: American Commercial Lines LLC, Jeffersonville, IN. More information available from US FCC via Universal Licensing System and Coast Guard Vessel Documentation Center.

Last reported at 2018-Jul-13 13:35 UTC. Time now 2018-Jul-16 14:46 UTC.
Position N 33°14' W 091°06'.

Length 55 m; draft 3.4 m.

Type: Towing. MMSI: 367530760.

Date/timePositionNaut miles runAvg speedWind from/ knotsBaromVisibWave heightAir tempDewpointWater temp
2018-Jul-13 13:35N 33°14' W 091°06'11 3.7
2018-Jul-13 10:42N 33°04' W 091°10'6 4.1
2018-Jul-13 09:10N 32°57' W 091°08'2 4.2
2018-Jul-13 08:43N 32°57' W 091°06'1 4.5
2018-Jul-13 08:27N 32°57' W 091°05'4 3.7
2018-Jul-13 07:21N 32°53' W 091°05'2 4.6
2018-Jul-13 07:00N 32°51' W 091°07'2 4.3
2018-Jul-13 06:29N 32°50' W 091°08'2 4.3
2018-Jul-13 05:54N 32°47' W 091°09'2 4.5
2018-Jul-13 05:30N 32°46' W 091°09'2 3.9
2018-Jul-13 04:57N 32°44' W 091°08'2 5.1
2018-Jul-13 04:30N 32°44' W 091°05'4 3.2
2018-Jul-13 03:21N 32°41' W 091°05'2 4.7
2018-Jul-13 03:00N 32°40' W 091°07'2 3.9
2018-Jul-13 02:30N 32°39' W 091°09'2 4.9
2018-Jul-13 02:00N 32°36' W 091°09'2 4.7
2018-Jul-13 01:30N 32°35' W 091°07'2 4.3
2018-Jul-13 01:00N 32°33' W 091°06'3 5.0
2018-Jul-13 00:30N 32°30' W 091°07'2 4.6
2018-Jul-13 00:00N 32°28' W 091°06'2 4.8
2018-Jul-12 23:30N 32°27' W 091°04'2 4.8
2018-Jul-12 23:00N 32°26' W 091°01'2 4.2
2018-Jul-12 22:30N 32°24' W 090°60'2 4.7
2018-Jul-12 22:00N 32°22' W 091°00'2 4.2
2018-Jul-12 21:29N 32°21' W 090°58'2 4.5
2018-Jul-12 21:00N 32°21' W 090°56'2 3.7
2018-Jul-12 20:29N 32°19' W 090°54'2 4.3
2018-Jul-12 20:00N 32°18' W 090°56'2 4.6
2018-Jul-12 19:30N 32°16' W 090°58'2 4.7
2018-Jul-12 19:00N 32°14' W 090°59'2 4.9
2018-Jul-12 18:30N 32°11' W 090°60'2 4.1
2018-Jul-12 18:00N 32°09' W 091°00'2 4.6
2018-Jul-12 17:30N 32°07' W 091°01'2 4.0
2018-Jul-12 17:00N 32°08' W 091°03'2 4.4
2018-Jul-12 16:30N 32°08' W 091°06'2 3.8
2018-Jul-12 15:58N 32°06' W 091°05'2 5.0
2018-Jul-12 15:30N 32°04' W 091°03'2 4.6
2018-Jul-12 15:00N 32°02' W 091°04'7 4.2
2018-Jul-12 13:26N 31°58' W 091°11'2 4.6
2018-Jul-12 13:00N 31°57' W 091°11'3 5.3
2018-Jul-12 12:30N 31°54' W 091°12'3 4.5
2018-Jul-12 11:50N 31°52' W 091°15'5 4.3
2018-Jul-12 10:42N 31°51' W 091°20'1 3.8
2018-Jul-12 10:30N 31°50' W 091°21'4 2.1
2018-Jul-12 08:33N 31°46' W 091°22'0 4.1
2018-Jul-12 08:30N 31°46' W 091°22'3 4.7
2018-Jul-12 07:58N 31°44' W 091°23'2 4.7
2018-Jul-12 07:28N 31°42' W 091°24'  
2018-Jul-08 13:13N 31°43' W 091°23'3 9.0
2018-Jul-08 12:51N 31°46' W 091°22'11 7.5
2018-Jul-08 11:22N 31°54' W 091°12'3 8.8
2018-Jul-08 10:58N 31°57' W 091°12'4 7.7
2018-Jul-08 10:30N 31°59' W 091°08'4 8.1
2018-Jul-08 10:00N 32°01' W 091°04'4 7.6
2018-Jul-08 09:30N 32°05' W 091°05'3 5.9
2018-Jul-08 09:00N 32°08' W 091°06'4 7.2
2018-Jul-08 08:30N 32°07' W 091°02'4 8.2
2018-Jul-08 08:00N 32°11' W 090°60'4 8.8
2018-Jul-08 07:30N 32°15' W 090°58'4 8.9
2018-Jul-08 07:00N 32°18' W 090°55'2 4.0
2018-Jul-08 06:30N 32°20' W 090°54'3 5.2
2018-Jul-08 06:00N 32°21' W 090°57'3 6.0
2018-Jul-08 05:30N 32°23' W 090°60'3 7.0
2018-Jul-08 05:00N 32°26' W 091°02'4 8.8
2018-Jul-08 04:30N 32°28' W 091°07'4 8.5
2018-Jul-08 04:00N 32°32' W 091°06'4 8.4
2018-Jul-08 03:30N 32°36' W 091°09'4 7.6
2018-Jul-08 03:00N 32°40' W 091°08'5 3.7
2018-Jul-08 01:44N 32°44' W 091°09'  

Dump ship's entire track history